Pagina principală
METAR-TAF:

METAR-TAF

Aeroporturi :

Pratt Industrial Airport

Pratt, Kansas, Statele Unite ale Americii

Latitudine: 37-42N, longitudine: 098-45W, elevație: 595 m

Observații meteo curente

Raportul a fost făcut în urmă cu 14 de minute, la 14:55 UTC
Vânt 17 kt de la Sud-vest cu rafale de până la 20 kt
Temperatură 25°C
Umiditate 69%
Presiune 1016 hPa
Vizibilitate: 16.1 km
Cer senin

METAR: KPTT 121455Z AUTO 22017G20KT 10SM CLR 25/19 A3001 RMK AO2 T02520188

Ora: 10:09 (15:09 UTC)


TAF: lipsă

Observații și prognoze meteo pentru peste 4.000 de aeroporturi (rapoarte METAR și TAF).

Stațiile disponibile sunt reprezentate pe hartă prin puncte galbene și roșii.

Țineți indicatorul mouse-ului pe punctul dorit pentru a vedea denumirea stației.

Apoi, faceți clic pentru a vedea observațiile și prognozele meteorologice.

Pentru a schimba harta: Pentru mărire, faceți clic pe butoanele verzi cu cruce neagră; pentru micșorare, pe butonul verde cu o liniuță; pentru hărți învecinate, pe săgețile verzi.


METAR-TAF: